Time;durP1;ratioP1;P1;durP2;ratioP2;P2;SDS_P1;SDS_P2;PMS_P1;PMS_P2;Temp;Humidity;BMP_temperature;BMP_pressure;BME280_temperature;BME280_humidity;BME280_pressure;Samples;Min_cycle;Max_cycle;Signal;HPM_P1;HPM_P2
2022/01/08 00:00:08;;;;;;;3.90;1.60;;;;;;;4.20;69.54;99060.19;340916;29;1170;-69
2022/01/08 00:00:21;;;;;;;4.03;1.80;;;;;;;4.25;69.72;99059.25;341396;28;1323;-69
2022/01/08 00:00:33;;;;;;;3.90;1.90;;;;;;;4.29;69.35;99054.03;341372;28;1023;-69
2022/01/08 00:00:46;;;;;;;3.67;1.95;;;;;;;4.32;68.93;99048.81;340966;28;1821;-69
2022/01/08 00:00:58;;;;;;;3.47;1.90;;;;;;;4.27;69.96;99057.50;340981;28;1596;-69
2022/01/08 00:01:11;;;;;;;3.78;1.90;;;;;;;4.20;69.84;99054.16;340939;29;1233;-69
2022/01/08 00:01:24;;;;;;;3.35;1.70;;;;;;;4.26;69.61;99060.94;343580;28;1047;-69
2022/01/08 00:01:36;;;;;;;3.13;1.73;;;;;;;4.36;69.46;99050.47;343618;28;1042;-69
2022/01/08 00:01:48;;;;;;;3.80;1.80;;;;;;;4.29;69.59;99053.19;343642;28;1068;-69
2022/01/08 00:01:59;;;;;;;3.30;1.67;;;;;;;4.25;69.78;99062.66;341951;28;1891;-69
2022/01/08 00:02:11;;;;;;;3.38;1.67;;;;;;;4.29;69.50;99058.31;342522;28;1019;-69
2022/01/08 00:02:23;;;;;;;3.25;1.60;;;;;;;4.20;69.24;99049.03;341853;28;2326;-69
2022/01/08 00:02:35;;;;;;;4.07;1.88;;;;;;;4.18;69.86;99048.19;342793;28;2219;-69
2022/01/08 00:02:48;;;;;;;4.35;1.83;;;;;;;4.18;69.52;99050.78;343908;28;1030;-69
2022/01/08 00:03:00;;;;;;;3.97;1.88;;;;;;;4.23;69.63;99046.41;342499;28;2029;-69
2022/01/08 00:03:13;;;;;;;3.88;1.88;;;;;;;4.28;69.48;99049.75;342638;28;1088;-69
2022/01/08 00:03:25;;;;;;;3.40;1.77;;;;;;;4.22;69.59;99047.28;342486;28;1170;-69
2022/01/08 00:03:39;;;;;;;4.15;1.77;;;;;;;4.22;69.69;99047.28;342550;28;1030;-69
2022/01/08 00:03:51;;;;;;;3.60;1.52;;;;;;;4.32;69.46;99046.25;342387;28;1309;-69
2022/01/08 00:04:05;;;;;;;3.15;1.48;;;;;;;4.22;69.61;99042.13;342351;28;1569;-69
2022/01/08 00:04:17;;;;;;;3.40;1.42;;;;;;;4.22;69.71;99052.41;342421;28;1007;-69
2022/01/08 00:04:29;;;;;;;2.65;1.40;;;;;;;4.23;70.16;99054.13;341491;28;1881;-69
2022/01/08 00:04:41;;;;;;;2.65;1.40;;;;;;;4.26;69.42;99048.91;343895;28;1049;-69
2022/01/08 00:04:58;;;;;;;3.20;1.35;;;;;;;4.26;69.89;99054.06;343746;28;1058;-69
2022/01/08 00:05:10;;;;;;;3.78;1.30;;;;;;;4.21;69.98;99045.59;340079;28;4758;-69
2022/01/08 00:05:23;;;;;;;3.85;1.50;;;;;;;4.21;70.27;99050.72;342299;28;5183;-69
2022/01/08 00:05:35;;;;;;;2.97;1.40;;;;;;;4.24;70.04;99045.53;342515;28;1274;-70
2022/01/08 00:05:48;;;;;;;3.13;1.42;;;;;;;4.19;70.00;99042.19;342282;28;5168;-70
2022/01/08 00:06:00;;;;;;;2.97;1.27;;;;;;;4.28;69.72;99047.16;342636;28;1337;-70
2022/01/08 00:06:12;;;;;;;3.55;1.40;;;;;;;4.30;69.91;99039.44;342504;28;1265;-70
2022/01/08 00:06:24;;;;;;;4.15;1.40;;;;;;;4.26;69.65;99040.34;342585;28;1041;-70
2022/01/08 00:06:36;;;;;;;3.22;1.42;;;;;;;4.34;69.65;99041.06;342538;28;1070;-70
2022/01/08 00:06:48;;;;;;;4.35;1.60;;;;;;;4.44;69.59;99046.91;342551;28;1058;-71
2022/01/08 00:07:00;;;;;;;4.18;1.70;;;;;;;4.48;69.85;99043.41;342423;28;1562;-71
2022/01/08 00:07:12;;;;;;;3.92;1.55;;;;;;;4.43;69.62;99037.47;341400;28;5335;-71
2022/01/08 00:07:24;;;;;;;3.50;1.50;;;;;;;4.48;68.99;99039.09;340911;29;1100;-71
2022/01/08 00:07:37;;;;;;;2.72;1.45;;;;;;;4.57;69.12;99038.13;341077;29;1059;-71
2022/01/08 00:07:49;;;;;;;2.58;1.50;;;;;;;4.63;68.41;99043.16;341150;29;1092;-71
2022/01/08 00:08:01;;;;;;;2.30;1.35;;;;;;;4.66;68.61;99037.94;341691;28;1575;-71
2022/01/08 00:08:14;;;;;;;2.00;1.20;;;;;;;4.60;68.58;99030.31;341148;28;1831;-70
2022/01/08 00:08:26;;;;;;;2.58;1.27;;;;;;;4.52;69.31;99034.75;342486;28;1207;-70
2022/01/08 00:08:38;;;;;;;2.95;1.30;;;;;;;4.50;69.04;99031.38;343722;28;1294;-70
2022/01/08 00:08:50;;;;;;;3.05;1.50;;;;;;;4.52;69.11;99034.75;342507;28;2076;-70
2022/01/08 00:09:02;;;;;;;3.03;1.40;;;;;;;4.56;69.08;99026.09;342937;28;1278;-70
2022/01/08 00:09:14;;;;;;;3.53;1.50;;;;;;;4.63;68.69;99035.44;341806;28;2308;-70
2022/01/08 00:09:26;;;;;;;3.28;1.50;;;;;;;4.63;69.19;99027.69;343783;28;1125;-70
2022/01/08 00:09:38;;;;;;;2.90;1.77;;;;;;;4.63;69.00;99030.28;342898;28;2021;-70
2022/01/08 00:09:50;;;;;;;3.50;2.13;;;;;;;4.70;68.63;99029.28;343903;28;1083;-70
2022/01/08 00:10:04;;;;;;;4.45;2.20;;;;;;;4.64;68.60;99024.22;342891;28;1413;-70
2022/01/08 00:10:16;;;;;;;4.35;2.05;;;;;;;4.51;69.21;99031.34;342364;28;1378;-70
2022/01/08 00:10:31;;;;;;;3.33;1.67;;;;;;;4.47;68.94;99026.28;342561;28;1042;-70
2022/01/08 00:10:43;;;;;;;4.32;1.60;;;;;;;4.55;68.22;99032.16;342472;28;1052;-70
2022/01/08 00:10:55;;;;;;;4.22;1.65;;;;;;;4.59;68.40;99026.06;342594;28;1306;-70
2022/01/08 00:11:09;;;;;;;4.00;1.80;;;;;;;4.59;68.24;99023.50;341174;28;1067;-70
2022/01/08 00:11:25;;;;;;;2.95;1.60;;;;;;;4.60;68.42;99028.59;342304;28;1942;-70
2022/01/08 00:11:40;;;;;;;2.42;1.36;;;;;;;4.65;68.18;99023.38;341702;28;1730;-70
2022/01/08 00:11:52;;;;;;;2.45;1.38;;;;;;;4.63;68.69;99027.69;342436;28;2032;-70
2022/01/08 00:12:05;;;;;;;2.25;1.35;;;;;;;4.70;67.88;99024.13;342414;28;1746;-70
2022/01/08 00:12:17;;;;;;;1.48;1.23;;;;;;;4.68;67.49;99025.88;342532;28;1071;-70
2022/01/08 00:12:29;;;;;;;1.80;1.20;;;;;;;4.77;67.41;99023.13;341743;28;2240;-70
2022/01/08 00:12:41;;;;;;;2.47;1.20;;;;;;;4.77;67.72;99025.72;342351;28;1265;-70
2022/01/08 00:12:53;;;;;;;4.45;1.38;;;;;;;4.73;67.78;99018.94;342544;28;1018;-70
2022/01/08 00:13:05;;;;;;;4.88;1.50;;;;;;;4.75;67.97;99021.47;341448;28;1920;-70
2022/01/08 00:13:18;;;;;;;3.15;1.60;;;;;;;4.75;67.79;99024.91;342033;28;1463;-70
2022/01/08 00:13:30;;;;;;;2.85;1.58;;;;;;;4.79;67.66;99023.97;342394;28;1068;-70
2022/01/08 00:13:42;;;;;;;2.92;1.70;;;;;;;4.85;67.60;99022.13;341468;28;1254;-70
2022/01/08 00:13:54;;;;;;;2.70;1.70;;;;;;;4.90;67.60;99015.16;341224;28;1088;-70
2022/01/08 00:14:09;;;;;;;2.65;1.50;;;;;;;4.95;67.77;99018.47;340979;28;1109;-70
2022/01/08 00:14:22;;;;;;;2.05;1.40;;;;;;;5.00;67.81;99014.09;341205;28;1063;-70
2022/01/08 00:14:35;;;;;;;2.70;1.50;;;;;;;5.06;67.86;99021.72;341444;28;2470;-70
2022/01/08 00:14:48;;;;;;;3.83;1.67;;;;;;;5.05;66.86;99020.03;342871;28;2043;-70
2022/01/08 00:15:00;;;;;;;3.17;1.58;;;;;;;5.08;66.89;99021.69;342874;28;1255;-70
2022/01/08 00:15:12;;;;;;;3.05;1.50;;;;;;;5.00;67.78;99019.25;343033;28;2007;-70
2022/01/08 00:15:24;;;;;;;3.28;1.52;;;;;;;4.98;67.67;99016.72;343744;28;1042;-70
2022/01/08 00:15:36;;;;;;;3.60;1.52;;;;;;;4.94;67.86;99012.50;341996;28;1669;-70
2022/01/08 00:15:48;;;;;;;2.80;1.40;;;;;;;4.92;67.93;99013.41;342871;28;1832;-70
2022/01/08 00:16:00;;;;;;;2.35;1.38;;;;;;;4.93;67.55;99015.97;341645;28;1914;-70
2022/01/08 00:16:12;;;;;;;2.17;1.30;;;;;;;4.85;67.48;99009.25;343331;28;1272;-70
2022/01/08 00:16:24;;;;;;;2.13;1.40;;;;;;;4.70;67.89;99011.25;343620;28;1855;-70
2022/01/08 00:16:37;;;;;;;2.60;1.50;;;;;;;4.76;67.69;99008.56;343530;28;1920;-70
2022/01/08 00:16:50;;;;;;;2.47;1.33;;;;;;;4.82;67.07;99006.75;342182;28;1289;-70
2022/01/08 00:17:02;;;;;;;1.98;1.20;;;;;;;4.69;67.75;99009.56;342653;28;1800;-70
2022/01/08 00:17:14;;;;;;;1.23;0.90;;;;;;;4.66;68.00;99007.03;342301;28;2004;-70
2022/01/08 00:17:26;;;;;;;1.10;1.00;;;;;;;4.73;67.61;99008.63;345073;28;1083;-70
2022/01/08 00:17:38;;;;;;;1.35;1.08;;;;;;;4.83;68.22;99005.84;345008;28;1097;-70
2022/01/08 00:17:50;;;;;;;2.20;1.02;;;;;;;4.84;67.49;99005.00;344843;28;1272;-70
2022/01/08 00:18:02;;;;;;;2.65;1.10;;;;;;;4.85;68.08;99009.25;342607;28;2212;-70
2022/01/08 00:18:15;;;;;;;2.28;1.00;;;;;;;4.82;68.69;99005.00;343908;28;1907;-70
2022/01/08 00:18:27;;;;;;;1.95;1.02;;;;;;;4.78;67.86;99000.81;343885;28;1047;-70
2022/01/08 00:18:39;;;;;;;2.85;1.20;;;;;;;4.83;68.01;99000.72;342663;28;2238;-70
2022/01/08 00:18:52;;;;;;;3.40;1.30;;;;;;;4.77;68.28;99004.28;342451;28;1227;-70
2022/01/08 00:19:04;;;;;;;2.72;1.40;;;;;;;4.82;68.21;99009.31;341846;28;1642;-70
2022/01/08 00:19:17;;;;;;;2.50;1.50;;;;;;;4.79;68.09;99008.50;342264;28;1038;-70
2022/01/08 00:19:29;;;;;;;2.55;1.40;;;;;;;4.70;67.54;99003.53;342336;28;1198;-70
2022/01/08 00:19:41;;;;;;;2.47;1.20;;;;;;;4.66;68.70;99001.03;342318;28;1060;-70
2022/01/08 00:19:53;;;;;;;3.33;1.20;;;;;;;4.63;67.81;99008.81;342061;28;1187;-70
2022/01/08 00:20:06;;;;;;;3.00;1.30;;;;;;;4.69;67.58;99001.84;342252;28;1702;-70
2022/01/08 00:20:18;;;;;;;2.38;1.20;;;;;;;4.71;67.70;99004.38;342295;28;1773;-70
2022/01/08 00:20:30;;;;;;;2.30;1.05;;;;;;;4.70;67.56;99006.09;342833;28;2089;-70
2022/01/08 00:20:44;;;;;;;2.85;1.10;;;;;;;4.79;67.09;99003.34;342645;28;2197;-70
2022/01/08 00:20:56;;;;;;;1.98;1.05;;;;;;;4.86;67.18;99005.81;342697;28;1092;-69
2022/01/08 00:21:08;;;;;;;1.83;1.08;;;;;;;4.90;67.17;98999.72;342452;28;2240;-70
2022/01/08 00:21:20;;;;;;;2.10;1.10;;;;;;;4.93;67.45;99004.78;342131;28;2222;-70
2022/01/08 00:21:33;;;;;;;2.30;1.10;;;;;;;4.94;67.40;98998.78;343495;28;1348;-70
2022/01/08 00:21:45;;;;;;;2.90;1.10;;;;;;;4.90;67.74;98999.72;343478;28;1051;-70
2022/01/08 00:21:57;;;;;;;2.42;1.10;;;;;;;4.86;68.03;99000.66;343348;28;1746;-70
2022/01/08 00:22:11;;;;;;;2.20;1.23;;;;;;;4.94;67.14;99002.19;342221;28;1035;-70
2022/01/08 00:22:23;;;;;;;2.20;1.30;;;;;;;4.91;66.89;98993.69;342365;28;1552;-70
2022/01/08 00:22:35;;;;;;;2.35;1.35;;;;;;;4.87;66.89;98995.50;341721;28;2045;-70
2022/01/08 00:22:51;;;;;;;2.40;1.30;;;;;;;4.91;67.10;98991.09;342550;28;1360;-70
2022/01/08 00:23:03;;;;;;;2.75;1.30;;;;;;;4.84;67.15;98989.53;341107;28;1934;-70
2022/01/08 00:23:15;;;;;;;2.67;1.20;;;;;;;4.76;67.82;98987.13;342041;28;2119;-70
2022/01/08 00:23:27;;;;;;;2.42;1.20;;;;;;;4.86;67.38;98992.94;342230;28;4459;-70
2022/01/08 00:23:39;;;;;;;3.08;1.40;;;;;;;4.92;67.24;98988.50;342202;28;1135;-70
2022/01/08 00:23:52;;;;;;;2.92;1.50;;;;;;;4.92;67.76;98990.25;343485;28;2387;-70
2022/01/08 00:24:04;;;;;;;2.00;1.25;;;;;;;4.74;67.95;98989.72;341686;28;1742;-70
2022/01/08 00:24:16;;;;;;;1.77;1.10;;;;;;;4.67;67.90;98983.00;343000;28;1989;-70
2022/01/08 00:24:28;;;;;;;2.58;1.20;;;;;;;4.62;67.75;98991.69;343835;28;974;-70
2022/01/08 00:24:40;;;;;;;2.90;1.30;;;;;;;4.55;68.19;98989.22;342935;28;2388;-70
2022/01/08 00:24:53;;;;;;;3.38;1.40;;;;;;;4.43;68.58;98984.31;342183;28;1201;-70
2022/01/08 00:25:06;;;;;;;2.70;1.30;;;;;;;4.43;68.54;98980.88;342208;28;1272;-70
2022/01/08 00:25:18;;;;;;;2.72;1.25;;;;;;;4.43;68.13;98984.31;342297;28;2056;-70
2022/01/08 00:25:30;;;;;;;2.08;1.20;;;;;;;4.40;68.45;98986.94;343455;28;1996;-70
2022/01/08 00:25:42;;;;;;;2.40;1.27;;;;;;;4.36;68.17;98983.56;342037;28;1995;-70
2022/01/08 00:25:54;;;;;;;2.80;1.33;;;;;;;4.37;68.25;98985.28;342928;28;1947;-70
2022/01/08 00:26:08;;;;;;;2.55;1.30;;;;;;;4.36;68.86;98988.69;340785;28;2186;-70
2022/01/08 00:26:21;;;;;;;2.13;1.25;;;;;;;4.36;68.84;98988.69;341305;28;1805;-70
2022/01/08 00:26:33;;;;;;;2.20;1.20;;;;;;;4.47;68.93;98985.13;341337;28;1838;-71
2022/01/08 00:26:45;;;;;;;2.50;1.30;;;;;;;4.44;68.42;98986.00;341924;28;2056;-71
2022/01/08 00:26:57;;;;;;;2.97;1.20;;;;;;;4.44;68.27;98986.00;342174;28;1673;-70
2022/01/08 00:27:09;;;;;;;3.72;1.30;;;;;;;4.49;68.15;98984.19;342220;28;1018;-70
2022/01/08 00:27:22;;;;;;;3.78;1.27;;;;;;;4.59;67.92;98983.16;342213;28;1011;-70
2022/01/08 00:27:34;;;;;;;2.28;1.10;;;;;;;4.70;68.23;98988.06;341727;28;2286;-70
2022/01/08 00:27:46;;;;;;;2.50;1.17;;;;;;;4.58;67.98;98983.16;341466;28;1959;-70
2022/01/08 00:27:58;;;;;;;2.28;1.30;;;;;;;4.58;67.75;98989.16;341989;28;2005;-70
2022/01/08 00:28:10;;;;;;;2.22;1.30;;;;;;;4.48;68.45;98981.66;342395;28;1201;-70
2022/01/08 00:28:22;;;;;;;3.33;1.30;;;;;;;4.47;68.09;98985.13;341540;28;882;-70
2022/01/08 00:28:34;;;;;;;4.30;1.35;;;;;;;4.45;67.86;98981.69;341539;28;1296;-70
2022/01/08 00:28:46;;;;;;;2.90;1.23;;;;;;;4.39;68.26;98980.94;341473;28;1231;-70
2022/01/08 00:28:59;;;;;;;1.95;1.20;;;;;;;4.40;68.70;98980.06;341413;28;1269;-70
2022/01/08 00:29:11;;;;;;;2.58;1.13;;;;;;;4.42;68.85;98986.91;342696;28;1073;-70
2022/01/08 00:29:23;;;;;;;2.58;1.20;;;;;;;4.39;69.03;98980.94;341413;28;1822;-71
2022/01/08 00:29:35;;;;;;;2.72;1.23;;;;;;;4.31;68.70;98982.81;342215;28;1743;-70
2022/01/08 00:29:48;;;;;;;2.67;1.25;;;;;;;4.34;68.98;98980.16;342413;28;1192;-70
2022/01/08 00:30:00;;;;;;;1.88;1.10;;;;;;;4.42;69.06;98977.47;342125;28;2110;-70
2022/01/08 00:30:13;;;;;;;1.50;1.00;;;;;;;4.30;68.91;98982.84;342273;28;2631;-70
2022/01/08 00:30:25;;;;;;;1.35;1.00;;;;;;;4.24;69.59;98982.94;339403;28;5000;-71
2022/01/08 00:30:37;;;;;;;1.38;1.00;;;;;;;4.26;69.62;98986.34;340437;28;6605;-71
2022/01/08 00:30:50;;;;;;;1.75;1.10;;;;;;;4.23;69.38;98981.25;341207;28;2162;-71
2022/01/08 00:31:03;;;;;;;2.17;1.10;;;;;;;4.27;69.14;98973.44;341551;28;6184;-70
2022/01/08 00:31:18;;;;;;;2.22;1.10;;;;;;;4.36;68.93;98978.41;343115;28;1039;-70
2022/01/08 00:31:30;;;;;;;2.80;1.10;;;;;;;4.38;69.38;98976.66;342246;28;2451;-70
2022/01/08 00:31:42;;;;;;;3.00;1.20;;;;;;;4.38;69.21;98976.66;341085;28;1051;-70
2022/01/08 00:31:54;;;;;;;2.33;1.10;;;;;;;4.39;69.52;98975.78;341342;28;1252;-70
2022/01/08 00:32:07;;;;;;;3.72;1.44;;;;;;;4.27;69.10;98978.59;342067;28;1071;-70
2022/01/08 00:32:19;;;;;;;4.30;1.60;;;;;;;4.24;69.15;98972.66;342212;28;1223;-70
2022/01/08 00:32:31;;;;;;;3.67;1.38;;;;;;;4.18;69.37;98979.59;341096;29;1060;-70
2022/01/08 00:32:43;;;;;;;2.15;1.08;;;;;;;4.18;69.67;98981.31;341171;28;1867;-70
2022/01/08 00:32:56;;;;;;;2.47;1.15;;;;;;;4.20;69.19;98982.13;342261;28;2320;-70
2022/01/08 00:33:08;;;;;;;2.75;1.20;;;;;;;4.19;69.79;98980.47;341053;29;1108;-70
2022/01/08 00:33:20;;;;;;;2.42;1.10;;;;;;;4.29;68.75;98979.41;340943;29;1074;-70
2022/01/08 00:33:32;;;;;;;1.42;1.10;;;;;;;4.27;68.97;98978.59;341556;28;1051;-70
2022/01/08 00:33:47;;;;;;;1.90;1.20;;;;;;;4.27;69.20;98978.59;341074;29;1060;-70
2022/01/08 00:33:59;;;;;;;2.20;1.10;;;;;;;4.32;68.56;98975.94;341439;28;1298;-71
2022/01/08 00:34:11;;;;;;;2.28;1.15;;;;;;;4.32;68.80;98981.91;342419;28;1107;-71
2022/01/08 00:34:23;;;;;;;1.80;1.08;;;;;;;4.31;68.72;98974.25;342163;28;1103;-71
2022/01/08 00:34:35;;;;;;;2.10;1.15;;;;;;;4.33;69.17;98977.63;341941;28;2302;-71
2022/01/08 00:34:47;;;;;;;3.13;1.27;;;;;;;4.27;69.11;98978.59;343101;28;1892;-71
2022/01/08 00:34:59;;;;;;;2.80;1.20;;;;;;;4.30;69.30;98982.84;341613;28;1204;-70
2022/01/08 00:35:12;;;;;;;2.58;1.10;;;;;;;4.39;68.78;98978.38;342456;28;1168;-70
2022/01/08 00:35:26;;;;;;;1.98;1.10;;;;;;;4.34;69.48;98975.00;341312;29;761;-70
2022/01/08 00:35:38;;;;;;;2.50;1.20;;;;;;;4.30;69.14;98973.38;341038;28;1318;-71
2022/01/08 00:35:50;;;;;;;2.75;1.27;;;;;;;4.36;68.71;98973.25;341021;29;1241;-71
2022/01/08 00:36:03;;;;;;;3.28;1.40;;;;;;;4.50;68.65;98972.16;341672;28;1206;-71
2022/01/08 00:36:15;;;;;;;2.80;1.30;;;;;;;4.53;68.39;98974.69;342298;28;1174;-71
2022/01/08 00:36:30;;;;;;;3.20;1.40;;;;;;;4.40;69.06;98969.75;341505;28;5202;-71
2022/01/08 00:36:43;;;;;;;2.63;1.30;;;;;;;4.33;68.40;98973.34;342050;28;1960;-71
2022/01/08 00:36:55;;;;;;;2.28;1.30;;;;;;;4.26;68.45;98970.91;342052;28;1056;-71
2022/01/08 00:37:07;;;;;;;1.80;1.20;;;;;;;4.21;68.89;98971.00;342194;28;1183;-71
2022/01/08 00:37:19;;;;;;;2.00;1.30;;;;;;;4.20;68.71;98983.00;342459;28;1091;-71
2022/01/08 00:37:31;;;;;;;2.20;1.40;;;;;;;4.23;68.98;98970.97;341595;28;2239;-71
2022/01/08 00:37:43;;;;;;;1.98;1.30;;;;;;;4.31;68.52;98966.53;341627;28;2014;-71
2022/01/08 00:37:55;;;;;;;2.17;1.20;;;;;;;4.39;68.40;98973.22;342690;28;2008;-71
2022/01/08 00:38:07;;;;;;;3.03;1.33;;;;;;;4.44;68.75;98975.69;342304;28;1073;-71
2022/01/08 00:38:19;;;;;;;3.40;1.40;;;;;;;4.39;68.46;98970.66;342537;28;2177;-71
2022/01/08 00:38:31;;;;;;;3.28;1.42;;;;;;;4.43;68.86;98973.16;343224;28;1095;-71
2022/01/08 00:38:44;;;;;;;2.58;1.40;;;;;;;4.37;68.64;98969.84;343519;28;1301;-71
2022/01/08 00:38:56;;;;;;;3.30;1.40;;;;;;;4.34;68.58;98969.88;342092;28;2210;-71
2022/01/08 00:39:08;;;;;;;3.50;1.30;;;;;;;4.34;68.87;98972.44;342234;28;1066;-71
2022/01/08 00:39:20;;;;;;;2.50;1.05;;;;;;;4.31;69.17;98972.53;342458;28;1039;-71
2022/01/08 00:39:33;;;;;;;1.95;1.10;;;;;;;4.31;69.37;98969.94;341386;28;2044;-71
2022/01/08 00:39:47;;;;;;;2.28;1.10;;;;;;;4.33;68.59;98968.19;343346;28;1043;-71
2022/01/08 00:39:59;;;;;;;2.20;1.08;;;;;;;4.38;68.73;98971.50;343221;28;1598;-71
2022/01/08 00:40:11;;;;;;;1.55;1.08;;;;;;;4.33;69.36;98973.34;342459;28;1357;-70
2022/01/08 00:40:23;;;;;;;1.55;1.17;;;;;;;4.36;68.72;98968.13;342532;28;1031;-70
2022/01/08 00:40:36;;;;;;;1.80;1.27;;;;;;;4.36;68.66;98965.53;342390;28;1087;-70
2022/01/08 00:40:48;;;;;;;1.85;1.30;;;;;;;4.23;68.49;98971.81;341148;28;2280;-70
2022/01/08 00:41:00;;;;;;;2.40;1.20;;;;;;;4.25;68.73;98970.06;342495;28;1651;-70
2022/01/08 00:41:12;;;;;;;2.28;1.15;;;;;;;4.27;68.68;98963.16;343117;28;1160;-70
2022/01/08 00:41:25;;;;;;;1.58;1.00;;;;;;;4.23;68.79;98973.53;343655;28;1207;-70
2022/01/08 00:41:40;;;;;;;1.45;1.10;;;;;;;4.18;68.74;98968.44;343575;28;1341;-70
2022/01/08 00:41:52;;;;;;;1.85;1.30;;;;;;;4.24;68.65;98972.66;343484;28;1083;-70
2022/01/08 00:42:04;;;;;;;2.35;1.30;;;;;;;4.21;69.07;98971.00;342025;28;1927;-70
2022/01/08 00:42:16;;;;;;;2.65;1.20;;;;;;;4.19;68.45;98965.03;342285;28;1202;-70
2022/01/08 00:42:28;;;;;;;2.05;1.20;;;;;;;4.19;68.46;98967.59;342314;28;1074;-70
2022/01/08 00:42:40;;;;;;;2.17;1.30;;;;;;;4.18;68.63;98971.03;342241;28;1063;-70
2022/01/08 00:42:52;;;;;;;2.22;1.30;;;;;;;4.22;68.89;98977.81;341097;28;2445;-70
2022/01/08 00:43:04;;;;;;;2.65;1.30;;;;;;;4.16;68.69;98971.03;342289;28;1827;-70
2022/01/08 00:43:16;;;;;;;2.00;1.10;;;;;;;4.20;69.04;98969.28;342064;28;1052;-70
2022/01/08 00:43:29;;;;;;;1.85;1.17;;;;;;;4.20;69.11;98966.69;342092;28;2210;-70
2022/01/08 00:43:41;;;;;;;1.90;1.17;;;;;;;4.26;69.19;98969.16;342467;28;1051;-70
2022/01/08 00:43:54;;;;;;;1.80;1.10;;;;;;;4.29;68.69;98969.13;342528;28;1173;-70
2022/01/08 00:44:06;;;;;;;2.13;1.40;;;;;;;4.42;68.07;98966.31;342486;28;1300;-70
2022/01/08 00:44:18;;;;;;;2.58;1.40;;;;;;;4.33;68.42;98965.63;342421;28;1284;-70
2022/01/08 00:44:30;;;;;;;2.08;1.08;;;;;;;4.29;68.89;98966.56;342466;28;2108;-70
2022/01/08 00:44:42;;;;;;;2.17;1.15;;;;;;;4.24;69.08;98963.19;342314;28;1941;-70
2022/01/08 00:44:55;;;;;;;2.08;1.30;;;;;;;4.35;68.44;98961.28;343468;28;1730;-70
2022/01/08 00:45:07;;;;;;;2.55;1.30;;;;;;;4.28;68.85;98962.25;342253;28;1823;-70
2022/01/08 00:45:20;;;;;;;2.38;1.20;;;;;;;4.15;69.08;98953.09;342385;28;1066;-70
2022/01/08 00:45:32;;;;;;;2.85;1.20;;;;;;;4.19;68.70;98949.59;343865;28;1079;-70
2022/01/08 00:45:44;;;;;;;2.97;1.27;;;;;;;4.19;69.03;98952.16;343889;28;1308;-70
2022/01/08 00:45:56;;;;;;;3.30;1.23;;;;;;;4.16;69.25;98959.91;343859;28;1031;-70
2022/01/08 00:46:08;;;;;;;2.47;1.20;;;;;;;4.05;69.53;98954.97;341172;28;1023;-70
2022/01/08 00:46:20;;;;;;;2.72;1.20;;;;;;;4.10;69.12;98958.28;341240;28;1168;-70
2022/01/08 00:46:32;;;;;;;2.67;1.27;;;;;;;4.06;69.49;98954.09;341201;28;1080;-70
2022/01/08 00:46:44;;;;;;;3.25;1.30;;;;;;;4.06;69.02;98958.38;341270;29;999;-70
2022/01/08 00:46:56;;;;;;;2.50;1.20;;;;;;;4.15;68.96;98958.25;340999;28;1395;-70
2022/01/08 00:47:08;;;;;;;1.55;1.00;;;;;;;4.15;69.16;98959.06;340806;28;2409;-70
2022/01/08 00:47:25;;;;;;;1.70;0.95;;;;;;;4.13;69.45;98965.13;340924;28;1159;-70
2022/01/08 00:47:37;;;;;;;2.17;1.10;;;;;;;4.12;68.85;98960.84;340926;28;1027;-70
2022/01/08 00:47:50;;;;;;;2.67;1.30;;;;;;;4.17;69.35;98956.50;341640;28;1638;-70
2022/01/08 00:48:02;;;;;;;2.75;1.30;;;;;;;4.23;69.25;98956.38;342880;28;1601;-70
2022/01/08 00:48:14;;;;;;;2.22;1.30;;;;;;;4.22;69.27;98959.81;342327;28;1277;-70
2022/01/08 00:48:26;;;;;;;2.85;1.48;;;;;;;4.26;68.98;98956.31;342346;28;1101;-70
2022/01/08 00:48:38;;;;;;;2.80;1.40;;;;;;;4.37;68.46;98953.56;342204;28;3221;-70
2022/01/08 00:48:50;;;;;;;2.42;1.30;;;;;;;4.37;67.92;98959.53;342489;28;1240;-70
2022/01/08 00:49:03;;;;;;;2.53;1.25;;;;;;;4.42;68.69;98956.03;342043;28;1905;-70
2022/01/08 00:49:15;;;;;;;2.50;1.23;;;;;;;4.32;68.84;98951.03;342239;28;1049;-70
2022/01/08 00:49:27;;;;;;;2.42;1.30;;;;;;;4.29;68.55;98956.25;342243;28;1994;-70
2022/01/08 00:49:39;;;;;;;2.08;1.30;;;;;;;4.32;68.33;98951.03;341892;28;2076;-70
2022/01/08 00:49:51;;;;;;;1.90;1.10;;;;;;;4.33;68.49;98955.31;343530;28;1702;-70
2022/01/08 00:50:05;;;;;;;1.88;1.13;;;;;;;4.31;68.40;98959.66;342747;28;1545;-70
2022/01/08 00:50:18;;;;;;;2.10;1.20;;;;;;;4.34;68.99;98949.28;342368;28;1399;-70
2022/01/08 00:50:30;;;;;;;2.25;1.30;;;;;;;4.32;69.16;98953.63;343634;28;1186;-70
2022/01/08 00:50:42;;;;;;;1.75;1.30;;;;;;;4.22;68.64;98952.09;342323;28;1177;-70
2022/01/08 00:50:54;;;;;;;3.00;1.30;;;;;;;4.21;68.88;98952.97;341556;28;2222;-70
2022/01/08 00:51:09;;;;;;;4.40;1.40;;;;;;;4.10;68.72;98955.72;342189;28;1068;-70
2022/01/08 00:51:21;;;;;;;3.38;1.30;;;;;;;4.10;69.07;98960.03;342393;28;1167;-70
2022/01/08 00:51:33;;;;;;;3.10;1.27;;;;;;;4.09;68.60;98956.63;342302;28;1095;-70
2022/01/08 00:51:45;;;;;;;2.50;1.40;;;;;;;4.08;69.22;98956.63;342343;28;1089;-70
2022/01/08 00:51:57;;;;;;;2.70;1.40;;;;;;;4.21;69.20;98958.13;342099;28;1617;-70
2022/01/08 00:52:09;;;;;;;3.00;1.40;;;;;;;4.16;69.13;98952.19;342208;28;1050;-70
2022/01/08 00:52:21;;;;;;;2.97;1.40;;;;;;;4.20;69.24;98961.56;341126;29;1063;-70
2022/01/08 00:52:39;;;;;;;1.75;1.27;;;;;;;4.16;68.96;98959.91;340900;29;1085;-70
2022/01/08 00:52:51;;;;;;;2.60;1.38;;;;;;;4.14;69.52;98953.94;342049;28;910;-70
2022/01/08 00:53:03;;;;;;;2.90;1.42;;;;;;;4.11;69.59;98961.75;342456;28;1390;-70
2022/01/08 00:53:15;;;;;;;1.92;1.30;;;;;;;4.09;69.48;98960.91;342302;28;1231;-70
2022/01/08 00:53:27;;;;;;;2.42;1.40;;;;;;;4.11;69.13;98957.44;342411;28;1324;-70
2022/01/08 00:53:39;;;;;;;2.13;1.40;;;;;;;4.08;69.49;98959.22;342364;28;1335;-70
2022/01/08 00:53:51;;;;;;;1.67;1.20;;;;;;;4.12;69.90;98964.25;342039;28;1036;-70
2022/01/08 00:54:03;;;;;;;1.70;1.13;;;;;;;4.22;69.53;98959.81;341852;28;1075;-70
2022/01/08 00:54:15;;;;;;;2.58;1.27;;;;;;;4.23;68.92;98955.53;342248;28;1249;-70
2022/01/08 00:54:27;;;;;;;2.63;1.30;;;;;;;4.20;68.83;98961.56;341114;28;2219;-70
2022/01/08 00:54:39;;;;;;;2.70;1.27;;;;;;;4.16;69.14;98959.91;341518;28;2099;-70
2022/01/08 00:54:52;;;;;;;3.20;1.50;;;;;;;4.23;69.24;98964.09;342170;28;2038;-70
2022/01/08 00:55:04;;;;;;;3.88;1.60;;;;;;;4.19;69.35;98965.03;342215;28;1529;-70
2022/01/08 00:55:17;;;;;;;3.03;1.45;;;;;;;4.23;69.55;98966.66;341416;28;1847;-70
2022/01/08 00:55:29;;;;;;;2.65;1.30;;;;;;;4.29;69.16;98963.97;341923;28;2168;-70
2022/01/08 00:55:41;;;;;;;1.77;1.20;;;;;;;4.35;69.53;98963.88;343710;28;1338;-70
2022/01/08 00:55:53;;;;;;;1.65;1.10;;;;;;;4.35;69.46;98961.28;343591;28;1114;-70
2022/01/08 00:56:05;;;;;;;2.03;1.20;;;;;;;4.33;69.47;98957.91;343552;28;2112;-70
2022/01/08 00:56:17;;;;;;;2.42;1.20;;;;;;;4.34;69.30;98959.59;343420;28;1288;-70
2022/01/08 00:56:29;;;;;;;2.40;1.40;;;;;;;4.26;69.32;98958.88;342167;28;1148;-70
2022/01/08 00:56:41;;;;;;;2.88;1.70;;;;;;;4.23;69.84;98950.38;341749;28;2056;-70
2022/01/08 00:56:53;;;;;;;2.83;1.60;;;;;;;4.11;69.66;98949.72;343030;28;2024;-70
2022/01/08 00:57:06;;;;;;;3.70;1.20;;;;;;;4.21;69.52;98952.97;342216;28;1641;-70
2022/01/08 00:57:18;;;;;;;3.85;1.20;;;;;;;4.34;69.31;98959.59;341885;28;1243;-70
2022/01/08 00:57:30;;;;;;;2.35;1.13;;;;;;;4.37;69.04;98950.97;341955;28;1149;-70
2022/01/08 00:57:42;;;;;;;2.03;1.10;;;;;;;4.25;69.03;98959.75;341396;28;2122;-70
2022/01/08 00:57:56;;;;;;;1.90;1.10;;;;;;;4.30;69.37;98962.25;341420;28;1702;-70
2022/01/08 00:58:08;;;;;;;2.03;1.20;;;;;;;4.27;69.64;98963.16;341228;29;1060;-70
2022/01/08 00:58:20;;;;;;;1.58;1.17;;;;;;;4.35;69.25;98965.59;340946;28;1837;-70
2022/01/08 00:58:32;;;;;;;1.85;1.15;;;;;;;4.29;69.28;98965.72;342951;28;1895;-70
2022/01/08 00:58:44;;;;;;;2.22;1.20;;;;;;;4.35;68.98;98963.88;343909;28;1228;-70
2022/01/08 00:58:56;;;;;;;2.83;1.40;;;;;;;4.32;69.30;98971.63;343631;28;1266;-70
2022/01/08 00:59:08;;;;;;;2.75;1.30;;;;;;;4.37;69.49;98964.69;342653;28;1142;-70
2022/01/08 00:59:20;;;;;;;2.65;1.20;;;;;;;4.36;68.88;98972.44;342612;28;1199;-70
2022/01/08 00:59:33;;;;;;;3.20;1.40;;;;;;;4.44;68.79;98965.41;342579;28;1113;-70
2022/01/08 00:59:45;;;;;;;3.10;1.50;;;;;;;4.37;69.17;98956.97;341646;28;2185;-70
2022/01/08 00:59:57;;;;;;;2.60;1.42;;;;;;;4.37;68.53;98959.53;342086;28;1686;-70
2022/01/08 01:00:11;;;;;;;2.85;1.25;;;;;;;4.53;67.82;98962.69;343010;28;1123;-70
2022/01/08 01:00:24;;;;;;;2.40;1.20;;;;;;;4.45;68.49;98958.53;343994;28;828;-70
2022/01/08 01:00:36;;;;;;;2.20;1.35;;;;;;;4.42;68.83;98950.88;343580;28;1276;-70